createdAt,value
2023-04-27T00:00:10.943Z,99099.72
2023-04-27T00:02:56.916Z,99096.16
2023-04-27T00:05:42.223Z,99093.78
2023-04-27T00:08:27.384Z,99090.59
2023-04-27T00:11:12.794Z,99089.00
2023-04-27T00:13:58.148Z,99082.25
2023-04-27T00:16:43.284Z,99089.00
2023-04-27T00:19:28.552Z,99090.25
2023-04-27T00:22:14.071Z,99084.69
2023-04-27T00:24:59.634Z,99087.81
2023-04-27T00:27:44.885Z,99091.00
2023-04-27T00:30:30.208Z,99091.00
2023-04-27T00:33:16.975Z,99090.25
2023-04-27T00:36:02.746Z,99090.25
2023-04-27T00:38:48.277Z,99090.25
2023-04-27T00:41:37.478Z,99097.00
2023-04-27T00:44:26.842Z,99098.56
2023-04-27T00:47:12.879Z,99098.22
2023-04-27T00:49:59.249Z,99099.78
2023-04-27T00:52:44.599Z,99094.25
2023-04-27T00:55:29.657Z,99101.34
2023-04-27T00:58:15.295Z,99099.78
2023-04-27T01:01:01.221Z,99105.00
2023-04-27T01:03:47.484Z,99103.00
2023-04-27T01:06:32.871Z,99105.75
2023-04-27T01:09:20.050Z,99112.09
2023-04-27T01:12:08.666Z,99113.69
2023-04-27T01:14:54.346Z,99108.53
2023-04-27T01:17:39.709Z,99108.53
2023-04-27T01:20:25.502Z,99113.31
2023-04-27T01:23:16.781Z,99113.31
2023-04-27T01:26:02.912Z,99108.53
2023-04-27T01:28:48.466Z,99105.75
2023-04-27T01:31:34.107Z,99112.50
2023-04-27T01:34:19.376Z,99106.97
2023-04-27T01:37:06.369Z,99107.75
2023-04-27T01:39:51.844Z,99116.09
2023-04-27T01:42:37.165Z,99111.75
2023-04-27T01:45:22.745Z,99116.50
2023-04-27T01:48:08.182Z,99114.16
2023-04-27T01:50:53.604Z,99121.28
2023-04-27T01:53:38.891Z,99122.47
2023-04-27T01:56:24.334Z,99126.84
2023-04-27T01:59:09.735Z,99128.41
2023-04-27T02:01:55.228Z,99126.84
2023-04-27T02:04:43.232Z,99126.06
2023-04-27T02:07:28.565Z,99121.72
2023-04-27T02:10:14.869Z,99122.47
2023-04-27T02:13:00.210Z,99134.81
2023-04-27T02:15:45.514Z,99130.03
2023-04-27T02:18:32.465Z,99132.03
2023-04-27T02:21:17.838Z,99128.03
2023-04-27T02:24:03.134Z,99126.47
2023-04-27T02:26:48.488Z,99135.59
2023-04-27T02:29:33.752Z,99138.78
2023-04-27T02:32:19.656Z,99127.31
2023-04-27T02:35:05.188Z,99132.09
2023-04-27T02:37:50.536Z,99133.31
2023-04-27T02:40:36.056Z,99131.72
2023-04-27T02:43:25.065Z,99130.94
2023-04-27T02:46:10.344Z,99133.72
2023-04-27T02:48:56.466Z,99135.31
2023-04-27T02:51:42.062Z,99142.06
2023-04-27T02:54:27.574Z,99132.19
2023-04-27T02:57:13.168Z,99132.94
2023-04-27T02:59:58.447Z,99128.59
2023-04-27T03:02:43.985Z,99139.69
2023-04-27T03:05:31.778Z,99129.41
2023-04-27T03:08:16.931Z,99142.84
2023-04-27T03:11:02.559Z,99141.28
2023-04-27T03:13:48.087Z,99141.69
2023-04-27T03:16:33.912Z,99144.47
2023-04-27T03:19:19.111Z,99144.47
2023-04-27T03:22:04.399Z,99142.91
2023-04-27T03:24:49.586Z,99142.91
2023-04-27T03:27:35.116Z,99148.84
2023-04-27T03:30:20.821Z,99157.16
2023-04-27T03:33:06.287Z,99162.72
2023-04-27T03:35:56.369Z,99165.50
2023-04-27T03:38:41.754Z,99169.84
2023-04-27T03:41:26.844Z,99175.38
2023-04-27T03:44:12.286Z,99173.38
2023-04-27T03:46:57.979Z,99172.25
2023-04-27T03:49:43.536Z,99177.38
2023-04-27T03:52:30.171Z,99179.38
2023-04-27T03:55:15.965Z,99180.16
2023-04-27T03:58:01.575Z,99182.53
2023-04-27T04:00:47.906Z,99179.25
2023-04-27T04:03:33.314Z,99183.59
2023-04-27T04:06:18.904Z,99182.75
2023-04-27T04:09:04.644Z,99190.22
2023-04-27T04:11:52.478Z,99189.00
2023-04-27T04:14:38.655Z,99194.94
2023-04-27T04:17:24.643Z,99194.88
2023-04-27T04:20:10.918Z,99196.38
2023-04-27T04:22:56.381Z,99200.25
2023-04-27T04:25:43.374Z,99196.97
2023-04-27T04:28:29.306Z,99198.91
2023-04-27T04:31:17.653Z,99203.25
2023-04-27T04:34:03.480Z,99206.81
2023-04-27T04:36:51.790Z,99208.72
2023-04-27T04:39:38.339Z,99211.09
2023-04-27T04:42:23.826Z,99209.47
2023-04-27T04:45:10.502Z,99201.94
2023-04-27T04:47:55.966Z,99205.47
2023-04-27T04:50:42.502Z,99211.81
2023-04-27T04:53:27.766Z,99210.63
2023-04-27T04:56:14.958Z,99218.03
2023-04-27T04:59:06.640Z,99220.00
2023-04-27T05:01:55.655Z,99220.78
2023-04-27T05:04:45.989Z,99215.22
2023-04-27T05:07:31.579Z,99216.34
2023-04-27T05:10:16.920Z,99212.38
2023-04-27T05:13:02.139Z,99217.94
2023-04-27T05:15:47.632Z,99216.72
2023-04-27T05:18:34.013Z,99219.50
2023-04-27T05:21:22.620Z,99218.72
2023-04-27T05:24:07.986Z,99212.38
2023-04-27T05:26:53.939Z,99212.38
2023-04-27T05:29:39.388Z,99211.22
2023-04-27T05:32:24.861Z,99207.66
2023-04-27T05:35:10.071Z,99212.06
2023-04-27T05:37:55.657Z,99213.28
2023-04-27T05:40:41.090Z,99210.22
2023-04-27T05:43:26.532Z,99216.19
2023-04-27T05:46:15.651Z,99215.81
2023-04-27T05:49:01.599Z,99217.88
2023-04-27T05:51:47.041Z,99207.94
2023-04-27T05:54:32.427Z,99208.81
2023-04-27T05:57:17.815Z,99204.91
2023-04-27T06:00:08.932Z,99210.88
2023-04-27T06:02:58.009Z,99208.94
2023-04-27T06:05:43.668Z,99209.72
2023-04-27T06:08:29.616Z,99201.81
2023-04-27T06:11:15.434Z,99199.88
2023-04-27T06:14:00.936Z,99202.66
2023-04-27T06:16:46.435Z,99196.75
2023-04-27T06:19:31.871Z,99201.94
2023-04-27T06:22:17.375Z,99207.50
2023-04-27T06:25:03.443Z,99208.28
2023-04-27T06:27:48.721Z,99208.72
2023-04-27T06:30:34.372Z,99215.47
2023-04-27T06:33:19.905Z,99215.09
2023-04-27T06:36:05.447Z,99209.19
2023-04-27T06:38:55.662Z,99214.75
2023-04-27T06:41:41.384Z,99216.75
2023-04-27T06:44:37.643Z,99212.41
2023-04-27T06:47:23.077Z,99207.63
2023-04-27T06:50:08.910Z,99207.63
2023-04-27T06:52:54.669Z,99213.19
2023-04-27T06:55:43.077Z,99211.59
2023-04-27T06:58:29.403Z,99216.38
2023-04-27T07:01:14.841Z,99217.16
2023-04-27T07:04:00.255Z,99212.41
2023-04-27T07:06:45.602Z,99214.38
2023-04-27T07:09:31.135Z,99218.38
2023-04-27T07:12:16.719Z,99218.38
2023-04-27T07:15:04.357Z,99215.59
2023-04-27T07:17:51.994Z,99225.13
2023-04-27T07:20:37.998Z,99227.13
2023-04-27T07:23:23.810Z,99230.34
2023-04-27T07:26:09.824Z,99228.34
2023-04-27T07:28:56.716Z,99226.75
2023-04-27T07:31:42.383Z,99221.22
2023-04-27T07:34:35.068Z,99229.53
2023-04-27T07:37:27.211Z,99225.22
2023-04-27T07:40:18.799Z,99231.53
2023-04-27T07:43:04.213Z,99226.75
2023-04-27T07:45:49.674Z,99235.09
2023-04-27T07:48:35.197Z,99233.53
2023-04-27T07:51:21.513Z,99241.88
2023-04-27T07:54:07.806Z,99230.75
2023-04-27T07:56:54.007Z,99231.53
2023-04-27T07:59:40.106Z,99242.66
2023-04-27T08:02:30.565Z,99244.22
2023-04-27T08:05:16.568Z,99244.22
2023-04-27T08:08:02.375Z,99245.44
2023-04-27T08:10:48.142Z,99249.78
2023-04-27T08:13:35.107Z,99261.69
2023-04-27T08:16:20.417Z,99253.72
2023-04-27T08:19:05.902Z,99249.78
2023-04-27T08:21:51.374Z,99241.47
2023-04-27T08:24:37.497Z,99249.78
2023-04-27T08:27:22.964Z,99243.00
2023-04-27T08:30:08.894Z,99246.22
2023-04-27T08:32:55.724Z,99245.78
2023-04-27T08:35:41.715Z,99245.00
2023-04-27T08:38:26.988Z,99252.91
2023-04-27T08:41:22.494Z,99249.78
2023-04-27T08:44:08.524Z,99247.44
2023-04-27T08:46:53.890Z,99243.44
2023-04-27T08:49:41.598Z,99254.13
2023-04-27T08:52:28.104Z,99235.09
2023-04-27T08:55:15.845Z,99239.88
2023-04-27T08:58:01.969Z,99233.13
2023-04-27T09:00:49.394Z,99246.22
2023-04-27T09:03:37.103Z,99251.75
2023-04-27T09:06:33.333Z,99242.66
2023-04-27T09:09:23.745Z,99242.66
2023-04-27T09:12:16.089Z,99241.09
2023-04-27T09:15:05.250Z,99241.88
2023-04-27T09:17:56.231Z,99235.53
2023-04-27T09:20:45.178Z,99243.88
2023-04-27T09:23:36.033Z,99245.06
2023-04-27T09:26:27.181Z,99243.06
2023-04-27T09:29:13.060Z,99241.09
2023-04-27T09:31:58.469Z,99235.53
2023-04-27T09:34:46.099Z,99222.84
2023-04-27T09:37:33.181Z,99229.16
2023-04-27T09:40:26.507Z,99229.97
2023-04-27T09:43:14.022Z,99229.97
2023-04-27T09:45:59.665Z,99220.44
2023-04-27T09:48:45.123Z,99225.97
2023-04-27T09:51:31.864Z,99218.88
2023-04-27T09:54:17.725Z,99225.97
2023-04-27T09:57:15.505Z,99224.44
2023-04-27T10:00:22.000Z,99217.66
2023-04-27T10:03:29.276Z,99222.84
2023-04-27T10:06:58.890Z,99220.84
2023-04-27T10:09:49.293Z,99218.06
2023-04-27T10:12:37.526Z,99216.09
2023-04-27T10:15:30.237Z,99218.06
2023-04-27T10:18:27.247Z,99220.84
2023-04-27T10:21:13.751Z,99213.31
2023-04-27T10:24:09.098Z,99218.06
2023-04-27T10:27:03.315Z,99213.31
2023-04-27T10:29:50.040Z,99224.44
2023-04-27T10:32:35.757Z,99224.06
2023-04-27T10:35:22.986Z,99231.16
2023-04-27T10:38:17.269Z,99226.41
2023-04-27T10:41:05.403Z,99224.44
2023-04-27T10:43:51.390Z,99218.88
2023-04-27T10:46:37.466Z,99218.06
2023-04-27T10:49:23.578Z,99224.44
2023-04-27T10:52:09.204Z,99210.94
2023-04-27T10:54:54.943Z,99214.50
2023-04-27T10:58:06.728Z,99221.66
2023-04-27T11:00:52.681Z,99211.72
2023-04-27T11:03:39.002Z,99217.28
2023-04-27T11:06:25.106Z,99218.06
2023-04-27T11:09:11.203Z,99213.72
2023-04-27T11:11:56.815Z,99210.16
2023-04-27T11:14:42.250Z,99207.41
2023-04-27T11:17:32.292Z,99214.13
2023-04-27T11:20:25.507Z,99215.72
2023-04-27T11:23:11.255Z,99208.59
2023-04-27T11:25:57.068Z,99204.63
2023-04-27T11:29:02.938Z,99208.59
2023-04-27T11:31:51.445Z,99209.41
2023-04-27T11:34:38.910Z,99199.06
2023-04-27T11:37:27.994Z,99205.41
2023-04-27T11:40:14.383Z,99214.50
2023-04-27T11:43:03.408Z,99214.94
2023-04-27T11:45:48.948Z,99219.28
2023-04-27T11:48:39.480Z,99233.94
2023-04-27T11:51:25.268Z,99224.84
2023-04-27T11:54:11.236Z,99222.84
2023-04-27T11:57:05.997Z,99225.63
2023-04-27T11:59:52.001Z,99231.53
2023-04-27T12:02:38.776Z,99233.53
2023-04-27T12:05:30.207Z,99230.34
2023-04-27T12:08:17.776Z,99237.09
2023-04-27T12:11:02.991Z,99225.97
2023-04-27T12:13:48.644Z,99229.97
2023-04-27T12:16:34.207Z,99235.91
2023-04-27T12:19:19.425Z,99229.13
2023-04-27T12:22:05.203Z,99229.13
2023-04-27T12:24:51.405Z,99237.81
2023-04-27T12:27:36.592Z,99232.28
2023-04-27T12:30:24.173Z,99227.50
2023-04-27T12:33:11.115Z,99227.44
2023-04-27T12:35:56.940Z,99234.56
2023-04-27T12:39:13.350Z,99237.34
2023-04-27T12:41:58.910Z,99240.06
2023-04-27T12:44:44.874Z,99236.00
2023-04-27T12:47:49.643Z,99224.81
2023-04-27T12:50:38.101Z,99226.34
2023-04-27T12:53:23.588Z,99222.28
2023-04-27T12:56:09.459Z,99224.16
2023-04-27T12:58:55.251Z,99226.09
2023-04-27T13:01:40.801Z,99234.84
2023-04-27T13:04:26.052Z,99226.94
2023-04-27T13:07:15.542Z,99225.72
2023-04-27T13:10:04.612Z,99228.09
2023-04-27T13:12:50.472Z,99220.53
2023-04-27T13:15:37.194Z,99215.00
2023-04-27T13:18:22.970Z,99221.69
2023-04-27T13:21:09.159Z,99222.03
2023-04-27T13:23:55.169Z,99226.75
2023-04-27T13:26:40.948Z,99220.00
2023-04-27T13:29:26.386Z,99219.91
2023-04-27T13:32:12.318Z,99212.38
2023-04-27T13:34:58.927Z,99209.94
2023-04-27T13:37:44.991Z,99211.50
2023-04-27T13:40:30.753Z,99209.88
2023-04-27T13:43:17.364Z,99216.22
2023-04-27T13:46:03.269Z,99211.44
2023-04-27T13:48:48.918Z,99207.44
2023-04-27T13:51:35.969Z,99200.69
2023-04-27T13:54:21.997Z,99199.47
2023-04-27T14:00:09.023Z,99188.69
2023-04-27T14:02:54.558Z,99187.47
2023-04-27T14:05:40.222Z,99190.25
2023-04-27T14:08:25.626Z,99191.84
2023-04-27T14:11:14.434Z,99189.06
2023-04-27T14:14:00.174Z,99192.63
2023-04-27T14:16:46.435Z,99188.56
2023-04-27T14:19:32.927Z,99187.78
2023-04-27T14:22:19.249Z,99192.47
2023-04-27T14:25:05.211Z,99192.06
2023-04-27T14:27:51.004Z,99187.19
2023-04-27T14:30:36.789Z,99192.75
2023-04-27T14:33:22.685Z,99187.19
2023-04-27T14:36:08.767Z,99177.63
2023-04-27T14:38:54.248Z,99187.56
2023-04-27T14:41:39.703Z,99191.53
2023-04-27T14:44:24.908Z,99189.53
2023-04-27T14:47:10.395Z,99185.47
2023-04-27T14:49:55.749Z,99197.75
2023-04-27T14:52:41.169Z,99195.75
2023-04-27T14:55:27.213Z,99191.75
2023-04-27T14:58:13.182Z,99186.19
2023-04-27T15:01:00.856Z,99192.88
2023-04-27T15:03:46.820Z,99188.47
2023-04-27T15:06:33.442Z,99187.25
2023-04-27T15:09:18.956Z,99187.66
2023-04-27T15:12:07.474Z,99190.38
2023-04-27T15:14:54.338Z,99185.94
2023-04-27T15:17:39.934Z,99193.53
2023-04-27T15:20:25.311Z,99194.22
2023-04-27T15:23:10.997Z,99183.53
2023-04-27T15:25:58.617Z,99189.88
2023-04-27T15:28:44.489Z,99187.19
2023-04-27T15:31:29.825Z,99189.09
2023-04-27T15:34:15.199Z,99191.09
2023-04-27T15:37:00.461Z,99195.00
2023-04-27T15:39:46.572Z,99184.25
2023-04-27T15:42:32.151Z,99182.22
2023-04-27T15:45:18.169Z,99185.00
2023-04-27T15:48:03.829Z,99187.38
2023-04-27T15:50:49.453Z,99178.66
2023-04-27T15:53:35.206Z,99177.91
2023-04-27T15:56:21.309Z,99167.13
2023-04-27T15:59:08.070Z,99166.75
2023-04-27T16:01:53.599Z,99177.09
2023-04-27T16:04:39.067Z,99167.59
2023-04-27T16:07:24.467Z,99160.13
2023-04-27T16:10:10.199Z,99158.06
2023-04-27T16:12:56.213Z,99154.84
2023-04-27T16:15:41.822Z,99149.19
2023-04-27T16:18:27.264Z,99150.34
2023-04-27T16:21:12.605Z,99138.78
2023-04-27T16:23:58.302Z,99138.78
2023-04-27T16:26:43.945Z,99140.31
2023-04-27T16:29:29.467Z,99147.91
2023-04-27T16:32:15.740Z,99140.69
2023-04-27T16:35:01.049Z,99149.38
2023-04-27T16:37:46.382Z,99140.69
2023-04-27T16:40:34.856Z,99144.63
2023-04-27T16:43:20.161Z,99141.47
2023-04-27T16:46:08.331Z,99146.59
2023-04-27T16:48:53.970Z,99142.97
2023-04-27T16:51:39.674Z,99142.56
2023-04-27T16:54:25.560Z,99145.34
2023-04-27T16:57:13.176Z,99144.91
2023-04-27T16:59:58.800Z,99156.81
2023-04-27T17:02:44.331Z,99154.38
2023-04-27T17:05:29.742Z,99155.94
2023-04-27T17:08:14.950Z,99157.53
2023-04-27T17:11:00.705Z,99155.16
2023-04-27T17:13:46.981Z,99155.50
2023-04-27T17:16:32.595Z,99155.50
2023-04-27T17:19:17.853Z,99156.28
2023-04-27T17:22:04.238Z,99158.28
2023-04-27T17:24:49.422Z,99153.97
2023-04-27T17:27:34.876Z,99157.09
2023-04-27T17:30:20.344Z,99158.28
2023-04-27T17:33:05.994Z,99158.28
2023-04-27T17:35:51.420Z,99157.09
2023-04-27T17:38:37.167Z,99161.09
2023-04-27T17:41:22.333Z,99164.66
2023-04-27T17:44:07.517Z,99167.44
2023-04-27T17:46:52.984Z,99159.94
2023-04-27T17:49:38.265Z,99171.16
2023-04-27T17:52:23.492Z,99173.94
2023-04-27T17:55:08.882Z,99175.16
2023-04-27T17:57:54.113Z,99174.38
2023-04-27T18:00:41.525Z,99172.81
2023-04-27T18:03:27.303Z,99170.50
2023-04-27T18:06:12.920Z,99167.31
2023-04-27T18:08:58.315Z,99176.03
2023-04-27T18:11:43.561Z,99183.94
2023-04-27T18:14:29.081Z,99187.94
2023-04-27T18:17:14.627Z,99190.28
2023-04-27T18:20:08.094Z,99185.94
2023-04-27T18:22:54.605Z,99191.88
2023-04-27T18:25:40.043Z,99194.28
2023-04-27T18:28:25.643Z,99195.13
2023-04-27T18:31:15.267Z,99200.00
2023-04-27T18:34:00.986Z,99206.75
2023-04-27T18:36:52.688Z,99202.41
2023-04-27T18:39:39.008Z,99204.84
2023-04-27T18:42:24.963Z,99207.28
2023-04-27T18:45:11.461Z,99218.41
2023-04-27T18:47:57.442Z,99210.13
2023-04-27T18:50:45.075Z,99224.03
2023-04-27T18:53:31.200Z,99215.78
2023-04-27T18:56:16.601Z,99222.91
2023-04-27T18:59:02.200Z,99228.09
2023-04-27T19:01:48.576Z,99225.00
2023-04-27T19:04:34.956Z,99233.75
2023-04-27T19:07:32.074Z,99230.25
2023-04-27T19:10:19.505Z,99239.38
2023-04-27T19:13:05.341Z,99239.84
2023-04-27T19:15:51.527Z,99238.31
2023-04-27T19:18:37.358Z,99235.19
2023-04-27T19:21:23.098Z,99243.97
2023-04-27T19:24:08.896Z,99245.97
2023-04-27T19:26:54.491Z,99249.09
2023-04-27T19:29:54.112Z,99249.09
2023-04-27T19:32:39.851Z,99241.09
2023-04-27T19:35:26.763Z,99242.69
2023-04-27T19:38:13.623Z,99248.25
2023-04-27T19:40:59.262Z,99244.22
2023-04-27T19:43:45.069Z,99242.63
2023-04-27T19:46:31.084Z,99243.41
2023-04-27T19:49:16.350Z,99231.50
2023-04-27T19:52:01.989Z,99234.59
2023-04-27T19:54:54.206Z,99223.47
2023-04-27T19:57:39.679Z,99220.69
2023-04-27T20:00:24.979Z,99221.50
2023-04-27T20:03:12.713Z,99219.06
2023-04-27T20:08:43.602Z,99220.97
2023-04-27T20:11:28.851Z,99211.41
2023-04-27T20:14:14.539Z,99216.66
2023-04-27T20:17:00.599Z,99223.41
2023-04-27T20:19:46.087Z,99226.97
2023-04-27T20:22:31.725Z,99223.41
2023-04-27T20:25:17.022Z,99221.75
2023-04-27T20:28:02.479Z,99218.19
2023-04-27T20:30:47.759Z,99213.88
2023-04-27T20:33:33.125Z,99216.66
2023-04-27T20:36:18.897Z,99215.06
2023-04-27T20:39:05.502Z,99215.06
2023-04-27T20:41:51.031Z,99216.66
2023-04-27T20:44:36.922Z,99220.97
2023-04-27T20:47:22.566Z,99223.06
2023-04-27T20:50:08.125Z,99216.78
2023-04-27T20:52:53.769Z,99221.97
2023-04-27T20:55:39.376Z,99222.06
2023-04-27T20:58:24.988Z,99219.72
2023-04-27T21:01:10.203Z,99219.81
2023-04-27T21:03:55.577Z,99217.44
2023-04-27T21:06:41.731Z,99214.28
2023-04-27T21:09:27.435Z,99212.72
2023-04-27T21:12:14.744Z,99210.81
2023-04-27T21:15:01.081Z,99200.53
2023-04-27T21:17:46.687Z,99203.31
2023-04-27T21:20:33.212Z,99197.81
2023-04-27T21:23:19.299Z,99195.47
2023-04-27T21:26:05.078Z,99198.69
2023-04-27T21:28:51.481Z,99192.75
2023-04-27T21:31:37.262Z,99192.00
2023-04-27T21:34:22.880Z,99192.41
2023-04-27T21:37:08.159Z,99182.16
2023-04-27T21:39:53.417Z,99191.28
2023-04-27T21:42:38.853Z,99179.78
2023-04-27T21:45:24.198Z,99182.56
2023-04-27T21:48:10.767Z,99182.22
2023-04-27T21:50:56.187Z,99186.19
2023-04-27T21:53:41.391Z,99179.06
2023-04-27T21:56:26.493Z,99177.53
2023-04-27T21:59:11.741Z,99177.53
2023-04-27T22:01:59.188Z,99175.16
2023-04-27T22:04:45.453Z,99174.38
2023-04-27T22:07:32.519Z,99173.56
2023-04-27T22:10:18.154Z,99172.00
2023-04-27T22:13:15.091Z,99168.88
2023-04-27T22:16:03.929Z,99174.44
2023-04-27T22:18:49.018Z,99179.22
2023-04-27T22:21:34.356Z,99170.88
2023-04-27T22:24:19.656Z,99173.28
2023-04-27T22:27:04.913Z,99169.75
2023-04-27T22:29:50.224Z,99174.50
2023-04-27T22:32:35.484Z,99172.13
2023-04-27T22:35:26.594Z,99191.16
2023-04-27T22:38:13.429Z,99185.59
2023-04-27T22:40:58.631Z,99175.31
2023-04-27T22:43:43.832Z,99180.88
2023-04-27T22:46:29.331Z,99175.31
2023-04-27T22:49:15.113Z,99179.31
2023-04-27T22:52:00.696Z,99170.63
2023-04-27T22:54:46.174Z,99176.19
2023-04-27T22:57:31.497Z,99176.19
2023-04-27T23:00:17.336Z,99175.84
2023-04-27T23:03:02.675Z,99174.59
2023-04-27T23:05:48.384Z,99173.06
2023-04-27T23:08:33.761Z,99168.28
2023-04-27T23:11:19.395Z,99173.84
2023-04-27T23:14:04.643Z,99166.72
2023-04-27T23:16:49.942Z,99166.72
2023-04-27T23:19:35.214Z,99161.56
2023-04-27T23:22:20.426Z,99163.56
2023-04-27T23:25:07.097Z,99158.03
2023-04-27T23:27:53.121Z,99157.22
2023-04-27T23:30:38.516Z,99157.22
2023-04-27T23:33:24.414Z,99157.22
2023-04-27T23:36:09.304Z,99152.88
2023-04-27T23:38:54.670Z,99155.66
2023-04-27T23:41:39.928Z,99147.31
2023-04-27T23:44:25.912Z,99144.97
2023-04-27T23:47:11.983Z,99134.66
2023-04-27T23:49:57.849Z,99138.63
2023-04-27T23:52:43.410Z,99123.94
2023-04-27T23:55:28.993Z,99125.97
2023-04-27T23:58:14.163Z,99121.19
